Time;durP1;ratioP1;P1;durP2;ratioP2;P2;SDS_P1;SDS_P2;PMS_P1;PMS_P2;Temp;Humidity;BMP_temperature;BMP_pressure;BME280_temperature;BME280_humidity;BME280_pressure;Samples;Min_cycle;Max_cycle;Signal;HPM_P1;HPM_P2
2020/12/01 00:01:40;;;;;;;19.67;14.85;;;2.60;99.90;;;;;;5058148;28;20663;-78
2020/12/01 00:04:06;;;;;;;18.45;13.02;;;2.60;99.90;;;;;;5056057;28;20195;-78
2020/12/01 00:06:33;;;;;;;19.48;14.65;;;2.60;99.90;;;;;;5055847;28;20233;-78
2020/12/01 00:09:00;;;;;;;20.90;14.85;;;2.70;99.90;;;;;;5056848;28;20203;-78
2020/12/01 00:11:26;;;;;;;21.27;15.00;;;2.70;99.90;;;;;;5058458;28;20291;-78
2020/12/01 00:13:52;;;;;;;23.60;16.73;;;2.70;99.90;;;;;;5066005;28;20223;-79
2020/12/01 00:16:19;;;;;;;21.10;15.57;;;2.70;99.90;;;;;;5066260;28;20235;-78
2020/12/01 00:18:45;;;;;;;21.33;15.40;;;2.70;99.90;;;;;;5067720;28;20203;-78
2020/12/01 00:21:13;;;;;;;23.95;13.73;;;2.80;99.90;;;;;;5066063;28;20623;-79
2020/12/01 00:23:41;;;;;;;17.92;13.20;;;2.70;99.90;;;;;;5066248;28;20218;-78
2020/12/01 00:26:07;;;;;;;17.00;13.50;;;2.70;99.90;;;;;;5066888;28;20215;-77
2020/12/01 00:28:34;;;;;;;21.17;14.50;;;2.70;99.90;;;;;;5065035;28;20200;-78
2020/12/01 00:31:01;;;;;;;19.30;14.95;;;2.70;99.90;;;;;;5062401;28;20309;-78
2020/12/01 00:33:28;;;;;;;17.25;13.82;;;2.70;99.90;;;;;;5063233;28;20206;-79
2020/12/01 00:35:56;;;;;;;19.10;14.13;;;2.70;99.90;;;;;;5059442;28;20210;-78
2020/12/01 00:38:22;;;;;;;21.27;13.73;;;2.70;99.90;;;;;;5058476;28;20242;-78
2020/12/01 00:40:50;;;;;;;21.85;15.40;;;2.70;99.90;;;;;;5057219;28;20762;-78
2020/12/01 00:43:17;;;;;;;20.85;14.80;;;2.80;99.90;;;;;;5057101;28;20226;-78
2020/12/01 00:45:44;;;;;;;19.13;14.15;;;2.80;99.90;;;;;;5056220;28;20272;-79
2020/12/01 00:48:10;;;;;;;18.60;13.88;;;2.70;99.90;;;;;;5056631;28;20210;-79
2020/12/01 00:50:36;;;;;;;20.42;14.77;;;2.80;99.90;;;;;;5055860;28;20314;-78
2020/12/01 00:53:03;;;;;;;18.90;14.82;;;2.70;99.90;;;;;;5055924;28;20210;-78
2020/12/01 00:55:29;;;;;;;18.58;14.23;;;2.70;99.90;;;;;;5055678;28;20209;-79
2020/12/01 00:57:57;;;;;;;22.98;14.95;;;2.70;99.90;;;;;;5057287;28;20226;-79
2020/12/01 01:00:25;;;;;;;20.05;14.77;;;2.70;99.90;;;;;;5056344;28;20195;-78
2020/12/01 01:02:52;;;;;;;20.02;13.43;;;2.70;99.90;;;;;;5055913;28;20254;-78
2020/12/01 01:05:18;;;;;;;19.60;13.88;;;2.80;99.90;;;;;;5055395;28;20207;-78
2020/12/01 01:07:45;;;;;;;21.45;15.02;;;2.70;99.90;;;;;;5055630;28;20273;-79
2020/12/01 01:10:16;;;;;;;21.02;14.77;;;2.70;99.90;;;;;;5054848;28;20215;-79
2020/12/01 01:12:43;;;;;;;23.33;15.15;;;2.70;99.90;;;;;;5055099;28;20415;-78
2020/12/01 01:15:10;;;;;;;20.42;14.30;;;2.70;99.90;;;;;;5055215;28;20209;-78
2020/12/01 01:17:36;;;;;;;17.75;14.73;;;2.80;99.90;;;;;;5055041;28;20751;-78
2020/12/01 01:20:03;;;;;;;23.70;15.75;;;2.80;99.90;;;;;;5055055;28;20627;-79
2020/12/01 01:22:30;;;;;;;22.05;13.90;;;2.80;99.90;;;;;;5054543;28;20230;-78
2020/12/01 01:24:56;;;;;;;21.20;15.40;;;2.80;99.90;;;;;;5054640;28;20203;-78
2020/12/01 01:27:22;;;;;;;17.80;14.45;;;2.80;99.90;;;;;;5054842;28;20209;-78
2020/12/01 01:29:49;;;;;;;23.38;16.35;;;2.80;99.90;;;;;;5054595;28;20254;-78
2020/12/01 01:32:16;;;;;;;18.42;14.80;;;2.90;99.90;;;;;;5053630;28;20223;-78
2020/12/01 01:34:42;;;;;;;24.00;16.08;;;2.80;99.90;;;;;;5053928;28;20210;-78
2020/12/01 01:37:08;;;;;;;21.60;14.82;;;2.80;99.90;;;;;;5054186;28;20667;-78
2020/12/01 01:39:35;;;;;;;22.83;15.60;;;2.80;99.90;;;;;;5053784;28;20222;-78
2020/12/01 01:42:05;;;;;;;21.60;15.23;;;2.80;99.90;;;;;;5054087;28;20326;-78
2020/12/01 01:44:31;;;;;;;18.40;14.60;;;2.90;99.90;;;;;;5053852;28;20300;-78
2020/12/01 01:47:02;;;;;;;21.40;15.00;;;2.90;99.90;;;;;;5053905;28;20205;-78
2020/12/01 01:49:36;;;;;;;22.52;14.55;;;2.90;99.90;;;;;;5053683;28;20218;-78
2020/12/01 01:52:04;;;;;;;23.23;15.98;;;2.90;99.90;;;;;;5053668;28;20226;-78
2020/12/01 01:54:31;;;;;;;18.85;14.45;;;2.90;99.90;;;;;;5053588;28;20206;-78
2020/12/01 01:57:01;;;;;;;21.02;15.25;;;2.90;99.90;;;;;;5053645;28;20580;-78
2020/12/01 01:59:30;;;;;;;24.90;17.83;;;2.90;99.90;;;;;;5053260;28;20703;-78
2020/12/01 02:01:57;;;;;;;24.35;15.48;;;2.90;99.90;;;;;;5053682;28;20576;-78
2020/12/01 02:04:23;;;;;;;28.70;16.80;;;2.90;99.90;;;;;;5053525;28;20285;-78
2020/12/01 02:06:53;;;;;;;23.27;15.77;;;2.90;99.90;;;;;;5053174;28;20207;-79
2020/12/01 02:09:24;;;;;;;21.65;15.75;;;2.90;99.90;;;;;;5053688;28;20310;-78
2020/12/01 02:11:51;;;;;;;22.27;15.43;;;2.90;99.90;;;;;;5053588;28;20306;-77
2020/12/01 02:14:23;;;;;;;20.15;15.63;;;2.80;99.90;;;;;;5054601;28;20203;-79
2020/12/01 02:16:53;;;;;;;23.63;16.48;;;2.80;99.90;;;;;;5054794;28;20191;-78
2020/12/01 02:19:24;;;;;;;28.88;17.40;;;2.80;99.90;;;;;;5055715;28;20203;-79
2020/12/01 02:21:52;;;;;;;24.40;18.58;;;2.80;99.90;;;;;;5054085;28;20619;-78
2020/12/01 02:24:21;;;;;;;23.65;17.15;;;2.80;99.90;;;;;;5053430;28;20202;-78
2020/12/01 02:26:53;;;;;;;21.88;15.43;;;2.80;99.90;;;;;;5053312;28;20203;-78
2020/12/01 02:29:21;;;;;;;20.65;16.13;;;2.80;99.90;;;;;;5053192;28;20241;-78
2020/12/01 02:31:48;;;;;;;25.98;16.20;;;2.80;99.90;;;;;;5052628;28;20722;-78
2020/12/01 02:34:17;;;;;;;26.52;17.15;;;2.80;99.90;;;;;;5053212;28;20231;-78
2020/12/01 02:36:44;;;;;;;23.02;16.65;;;2.80;99.90;;;;;;5053350;28;20214;-78
2020/12/01 02:39:12;;;;;;;22.20;16.13;;;2.90;99.90;;;;;;5053973;28;20663;-78
2020/12/01 02:41:39;;;;;;;22.42;15.95;;;2.90;99.90;;;;;;5055049;28;20251;-78
2020/12/01 02:44:07;;;;;;;20.95;15.55;;;2.90;99.90;;;;;;5055168;28;20556;-79
2020/12/01 02:46:35;;;;;;;20.25;15.65;;;2.90;99.90;;;;;;5055140;28;20242;-78
2020/12/01 02:49:03;;;;;;;21.52;16.08;;;2.90;99.90;;;;;;5055178;28;20203;-78
2020/12/01 02:51:30;;;;;;;23.85;16.27;;;2.90;99.90;;;;;;5056193;28;20706;-77
2020/12/01 02:53:56;;;;;;;22.85;17.05;;;2.90;99.90;;;;;;5056524;28;20271;-77
2020/12/01 02:56:22;;;;;;;23.98;18.42;;;2.90;99.90;;;;;;5056908;28;20214;-77
2020/12/01 02:58:49;;;;;;;25.13;17.58;;;2.90;99.90;;;;;;5056754;28;20554;-77
2020/12/01 03:01:16;;;;;;;25.02;16.63;;;2.90;99.90;;;;;;5056557;28;20594;-77
2020/12/01 03:03:42;;;;;;;25.15;17.48;;;2.90;99.90;;;;;;5056278;28;20306;-77
2020/12/01 03:06:09;;;;;;;24.25;16.50;;;3.00;99.90;;;;;;5056588;28;20209;-78
2020/12/01 03:08:35;;;;;;;24.52;17.63;;;3.00;99.90;;;;;;5056044;28;20293;-77
2020/12/01 03:11:02;;;;;;;27.00;18.40;;;3.10;99.90;;;;;;5056118;28;20607;-77
2020/12/01 03:13:28;;;;;;;21.92;15.57;;;3.10;99.90;;;;;;5056280;28;20213;-77
2020/12/01 03:15:57;;;;;;;23.60;17.80;;;3.10;99.90;;;;;;5056235;28;20210;-77
2020/12/01 03:18:24;;;;;;;25.90;19.27;;;3.10;99.90;;;;;;5056070;28;20207;-77
2020/12/01 03:20:51;;;;;;;26.52;18.15;;;3.10;99.90;;;;;;5055866;28;20199;-77
2020/12/01 03:23:17;;;;;;;25.83;18.23;;;3.10;99.90;;;;;;5056073;28;20690;-77
2020/12/01 03:25:43;;;;;;;24.85;18.85;;;3.10;99.90;;;;;;5055924;28;20563;-76
2020/12/01 03:28:09;;;;;;;25.60;18.90;;;3.10;99.90;;;;;;5055721;28;20206;-76
2020/12/01 03:30:36;;;;;;;25.88;17.83;;;3.10;99.90;;;;;;5055721;28;20246;-77
2020/12/01 03:33:02;;;;;;;26.40;18.23;;;3.00;99.90;;;;;;5055952;28;20203;-77
2020/12/01 03:35:29;;;;;;;30.85;18.70;;;3.00;99.90;;;;;;5055490;28;20207;-77
2020/12/01 03:37:56;;;;;;;29.00;20.27;;;3.20;99.90;;;;;;5055794;28;20203;-77
2020/12/01 03:40:23;;;;;;;25.60;19.00;;;3.10;99.90;;;;;;5055595;28;20210;-76
2020/12/01 03:42:49;;;;;;;27.13;19.55;;;3.10;99.90;;;;;;5055524;28;20248;-77
2020/12/01 03:45:15;;;;;;;28.10;19.30;;;3.10;99.90;;;;;;5055619;28;20226;-76
2020/12/01 03:47:42;;;;;;;28.48;19.23;;;3.10;99.90;;;;;;5055808;28;20274;-76
2020/12/01 03:50:08;;;;;;;29.58;21.17;;;3.10;99.90;;;;;;5055888;28;20314;-77
2020/12/01 03:52:37;;;;;;;28.45;19.15;;;3.00;99.90;;;;;;5055970;28;20229;-76
2020/12/01 03:55:04;;;;;;;29.40;20.80;;;3.10;99.90;;;;;;5055660;28;20675;-76
2020/12/01 03:57:40;;;;;;;26.95;19.20;;;3.10;99.90;;;;;;5055735;28;20298;-77
2020/12/01 04:00:07;;;;;;;29.70;19.13;;;3.20;99.90;;;;;;5056361;28;20209;-76
2020/12/01 04:02:33;;;;;;;37.80;21.73;;;3.10;99.90;;;;;;5055289;28;20746;-76
2020/12/01 04:04:59;;;;;;;32.50;21.50;;;3.10;99.90;;;;;;5055882;28;20206;-77
2020/12/01 04:07:26;;;;;;;31.70;20.98;;;3.00;99.90;;;;;;5055722;28;20241;-76
2020/12/01 04:09:53;;;;;;;37.83;25.00;;;3.00;99.90;;;;;;5056166;28;20231;-76
2020/12/01 04:12:19;;;;;;;32.38;20.90;;;3.00;99.90;;;;;;5055606;28;20237;-76
2020/12/01 04:14:46;;;;;;;32.63;22.88;;;3.10;99.90;;;;;;5055471;28;20293;-76
2020/12/01 04:17:12;;;;;;;33.83;22.10;;;3.00;99.90;;;;;;5055252;28;20297;-76
2020/12/01 04:19:38;;;;;;;31.80;23.15;;;3.00;99.90;;;;;;5055671;28;20250;-77
2020/12/01 04:22:05;;;;;;;33.65;21.40;;;3.10;99.90;;;;;;5055134;28;20364;-76
2020/12/01 04:24:31;;;;;;;31.20;23.83;;;3.10;99.90;;;;;;5055235;28;20207;-76
2020/12/01 04:26:58;;;;;;;31.17;21.50;;;3.10;99.90;;;;;;5056259;28;20199;-77
2020/12/01 04:29:24;;;;;;;29.65;20.23;;;3.00;99.90;;;;;;5055313;28;20302;-76
2020/12/01 04:31:51;;;;;;;33.05;22.13;;;3.00;99.90;;;;;;5055385;28;20234;-76
2020/12/01 04:34:17;;;;;;;37.70;22.98;;;3.10;99.90;;;;;;5055145;28;20293;-76
2020/12/01 04:36:44;;;;;;;35.58;23.73;;;3.00;99.90;;;;;;5055374;28;20207;-77
2020/12/01 04:39:10;;;;;;;38.25;23.33;;;3.00;99.90;;;;;;5055378;28;20213;-76
2020/12/01 04:41:37;;;;;;;37.95;24.02;;;3.10;99.90;;;;;;5055097;28;20306;-76
2020/12/01 04:44:05;;;;;;;37.78;24.25;;;3.00;99.90;;;;;;5055112;28;20188;-78
2020/12/01 04:46:35;;;;;;;38.20;24.90;;;3.00;99.90;;;;;;5055197;28;20635;-78
2020/12/01 04:49:13;;;;;;;43.58;25.25;;;3.00;99.90;;;;;;5055233;28;20203;-77
2020/12/01 04:51:51;;;;;;;38.35;23.88;;;3.00;99.90;;;;;;5055153;28;20456;-77
2020/12/01 04:54:45;;;;;;;35.45;24.23;;;3.10;99.90;;;;;;5055453;28;20205;-78
2020/12/01 04:57:35;;;;;;;34.03;23.25;;;3.10;99.90;;;;;;5055907;28;20187;-77
2020/12/01 05:00:17;;;;;;;39.53;24.13;;;3.10;99.90;;;;;;5051420;28;20195;-77
2020/12/01 05:03:04;;;;;;;37.70;24.52;;;3.10;99.90;;;;;;5054596;28;20226;-77
2020/12/01 05:05:55;;;;;;;38.45;23.67;;;3.10;99.90;;;;;;5053924;28;20198;-77
2020/12/01 05:08:54;;;;;;;37.22;26.02;;;3.10;99.90;;;;;;5053446;28;20455;-77
2020/12/01 05:11:36;;;;;;;40.30;24.20;;;3.10;99.90;;;;;;5033597;28;20241;-76
2020/12/01 05:14:14;;;;;;;35.08;23.83;;;3.10;99.90;;;;;;5053164;28;20282;-76
2020/12/01 05:16:48;;;;;;;40.30;26.25;;;3.10;99.90;;;;;;5054166;28;20585;-77
2020/12/01 05:19:32;;;;;;;38.00;26.63;;;3.10;99.90;;;;;;5054000;28;20218;-77
2020/12/01 05:21:58;;;;;;;38.60;24.52;;;3.10;99.90;;;;;;5053388;28;20691;-77
2020/12/01 05:24:36;;;;;;;32.60;22.60;;;3.00;99.90;;;;;;5053728;28;20283;-77
2020/12/01 05:27:02;;;;;;;38.15;24.60;;;3.20;99.90;;;;;;5057862;28;20255;-77
2020/12/01 05:29:29;;;;;;;39.95;24.30;;;3.10;99.90;;;;;;5058488;28;20733;-77
2020/12/01 05:31:56;;;;;;;41.72;26.98;;;3.10;99.90;;;;;;5058596;28;20313;-77
2020/12/01 05:34:23;;;;;;;39.45;25.60;;;3.10;99.90;;;;;;5058088;28;20203;-77
2020/12/01 05:36:52;;;;;;;37.92;25.85;;;3.20;99.90;;;;;;5056853;28;20433;-78
2020/12/01 05:39:20;;;;;;;39.80;25.55;;;3.20;99.90;;;;;;5057037;28;20226;-77
2020/12/01 05:41:59;;;;;;;42.58;27.13;;;3.20;99.90;;;;;;5054520;28;20247;-77
2020/12/01 05:44:27;;;;;;;39.05;25.20;;;3.10;99.90;;;;;;5054102;28;20279;-77
2020/12/01 05:47:01;;;;;;;49.10;28.85;;;3.10;99.90;;;;;;5053916;28;20206;-77
2020/12/01 05:49:38;;;;;;;42.53;26.35;;;3.10;99.90;;;;;;5053621;28;20253;-77
2020/12/01 05:52:09;;;;;;;41.75;26.05;;;3.10;99.90;;;;;;5053075;28;20233;-77
2020/12/01 05:54:40;;;;;;;45.08;25.17;;;3.10;99.90;;;;;;5053614;28;20183;-77
2020/12/01 05:57:18;;;;;;;40.03;25.83;;;3.30;99.90;;;;;;5053771;28;20183;-76
2020/12/01 05:59:53;;;;;;;44.17;25.75;;;3.30;99.90;;;;;;5053364;28;20274;-77
2020/12/01 06:02:33;;;;;;;43.17;29.05;;;3.40;99.90;;;;;;5052081;28;20474;-77
2020/12/01 06:05:00;;;;;;;41.38;28.40;;;3.40;99.90;;;;;;5053236;28;20500;-77
2020/12/01 06:07:27;;;;;;;48.25;28.73;;;3.40;99.90;;;;;;5052758;28;20668;-78
2020/12/01 06:10:23;;;;;;;37.75;24.58;;;3.20;99.90;;;;;;5052782;28;20203;-77
2020/12/01 06:13:21;;;;;;;42.58;25.73;;;3.20;99.90;;;;;;5053069;28;20227;-78
2020/12/01 06:16:03;;;;;;;44.45;27.65;;;3.20;99.90;;;;;;5052608;28;20294;-77
2020/12/01 06:18:43;;;;;;;39.60;26.23;;;3.20;99.90;;;;;;5052781;28;20191;-76
2020/12/01 06:21:10;;;;;;;41.42;24.67;;;3.20;99.90;;;;;;5053019;28;20226;-77
2020/12/01 06:24:08;;;;;;;40.80;26.20;;;3.20;99.90;;;;;;5053139;28;20195;-76
2020/12/01 06:27:02;;;;;;;42.33;26.00;;;3.20;99.90;;;;;;5058105;28;20559;-77
2020/12/01 06:30:14;;;;;;;41.38;25.88;;;3.10;99.90;;;;;;5057410;28;20187;-77
2020/12/01 06:33:26;;;;;;;40.67;24.70;;;3.20;99.90;;;;;;5057537;28;20222;-77
2020/12/01 06:36:37;;;;;;;42.60;28.02;;;3.10;99.90;;;;;;5057494;28;20252;-77
2020/12/01 06:39:18;;;;;;;40.10;26.13;;;3.10;99.90;;;;;;5057244;28;20202;-77
2020/12/01 06:41:48;;;;;;;43.08;25.60;;;3.10;99.90;;;;;;5057602;28;20223;-77
2020/12/01 06:44:26;;;;;;;39.83;26.42;;;3.10;99.90;;;;;;5057777;28;20209;-77
2020/12/01 06:46:54;;;;;;;42.85;25.67;;;3.10;99.90;;;;;;5056844;28;20669;-76
2020/12/01 06:49:24;;;;;;;44.60;26.27;;;3.10;99.90;;;;;;5056804;28;20203;-77
2020/12/01 06:51:54;;;;;;;43.15;26.98;;;3.10;99.90;;;;;;5056367;28;20226;-77
2020/12/01 06:54:20;;;;;;;40.65;24.80;;;3.10;99.90;;;;;;5057199;28;20636;-77
2020/12/01 06:56:58;;;;;;;39.72;24.65;;;3.10;99.90;;;;;;5056623;28;20766;-77
2020/12/01 06:59:25;;;;;;;46.67;29.38;;;3.10;99.90;;;;;;5056301;28;20207;-77
2020/12/01 07:01:51;;;;;;;40.22;25.75;;;3.10;99.90;;;;;;5057164;28;20226;-77
2020/12/01 07:04:25;;;;;;;38.05;24.55;;;3.10;99.90;;;;;;5060731;28;20206;-77
2020/12/01 07:06:55;;;;;;;41.70;25.83;;;3.20;99.90;;;;;;5061068;28;20187;-78
2020/12/01 07:09:24;;;;;;;45.00;26.42;;;3.10;99.90;;;;;;5060430;28;20293;-77
2020/12/01 07:11:58;;;;;;;36.47;23.98;;;3.10;99.90;;;;;;5058538;28;20238;-77
2020/12/01 07:14:31;;;;;;;40.45;28.60;;;3.10;99.90;;;;;;5057558;28;20682;-77
2020/12/01 07:16:58;;;;;;;45.20;27.70;;;3.10;99.90;;;;;;5057490;28;20290;-78
2020/12/01 07:19:40;;;;;;;38.47;25.23;;;3.10;99.90;;;;;;5058373;28;20291;-77
2020/12/01 07:22:14;;;;;;;46.80;27.35;;;3.00;99.90;;;;;;5058023;28;20321;-77
2020/12/01 07:24:46;;;;;;;43.85;26.00;;;3.10;99.90;;;;;;5058403;28;20203;-77
2020/12/01 07:27:20;;;;;;;39.85;24.92;;;3.10;99.90;;;;;;5057261;28;20294;-77
2020/12/01 07:30:00;;;;;;;35.80;24.17;;;3.10;99.90;;;;;;5058035;28;20191;-77
2020/12/01 07:32:30;;;;;;;46.17;26.30;;;3.20;99.90;;;;;;5058038;28;20258;-77
2020/12/01 07:35:07;;;;;;;37.55;24.60;;;3.20;99.90;;;;;;5057186;28;20179;-77
2020/12/01 07:37:55;;;;;;;37.25;24.60;;;3.20;99.90;;;;;;5056480;28;20187;-77
2020/12/01 07:40:27;;;;;;;43.78;26.85;;;3.20;99.90;;;;;;5057032;28;20252;-76
2020/12/01 07:43:02;;;;;;;39.30;25.17;;;3.20;99.90;;;;;;5061017;28;20249;-76
2020/12/01 07:45:31;;;;;;;41.45;25.58;;;3.20;99.90;;;;;;5061755;28;20194;-76
2020/12/01 07:48:00;;;;;;;42.08;25.65;;;3.20;99.90;;;;;;5057709;28;20194;-76
2020/12/01 07:50:28;;;;;;;44.75;25.30;;;3.30;99.90;;;;;;5056853;28;20214;-77
2020/12/01 07:52:59;;;;;;;41.05;25.08;;;3.30;99.90;;;;;;5055877;28;20805;-77
2020/12/01 07:55:34;;;;;;;50.40;26.23;;;3.30;99.90;;;;;;5056181;28;20214;-77
2020/12/01 07:58:01;;;;;;;36.30;23.73;;;3.30;99.90;;;;;;5056171;28;20214;-77
2020/12/01 08:00:29;;;;;;;40.88;25.65;;;3.30;99.90;;;;;;5055810;28;20564;-76
2020/12/01 08:03:08;;;;;;;36.30;24.67;;;3.40;99.90;;;;;;5057028;28;20321;-77
2020/12/01 08:05:34;;;;;;;41.88;25.30;;;3.40;99.90;;;;;;5057085;28;20270;-77
2020/12/01 08:08:01;;;;;;;43.60;25.73;;;3.40;99.90;;;;;;5056987;28;20188;-77
2020/12/01 08:10:29;;;;;;;43.25;25.08;;;3.50;99.90;;;;;;5056284;28;20234;-77
2020/12/01 08:13:02;;;;;;;37.22;24.50;;;3.60;99.90;;;;;;5056244;28;20219;-77
2020/12/01 08:15:29;;;;;;;41.83;24.33;;;3.60;99.90;;;;;;5056255;28;20207;-78
2020/12/01 08:17:56;;;;;;;34.25;23.40;;;3.60;99.90;;;;;;5056098;28;20563;-78
2020/12/01 08:20:25;;;;;;;36.88;23.92;;;3.70;99.90;;;;;;5056660;28;20209;-78
2020/12/01 08:23:02;;;;;;;34.13;23.80;;;3.70;99.90;;;;;;5055763;28;20300;-78
2020/12/01 08:25:30;;;;;;;37.25;23.65;;;3.60;99.90;;;;;;5055834;28;20273;-79
2020/12/01 08:28:06;;;;;;;39.80;24.05;;;3.70;99.90;;;;;;5057802;28;20202;-78
2020/12/01 08:30:44;;;;;;;35.35;24.08;;;3.70;99.90;;;;;;5056963;28;20207;-79
2020/12/01 08:33:18;;;;;;;39.10;26.20;;;3.70;99.90;;;;;;5058162;28;20273;-78
2020/12/01 08:35:53;;;;;;;37.60;22.70;;;3.80;99.90;;;;;;5057136;28;20244;-78
2020/12/01 08:38:26;;;;;;;36.15;22.48;;;3.70;99.90;;;;;;5056882;28;20278;-78
2020/12/01 08:41:03;;;;;;;33.95;20.83;;;3.80;99.90;;;;;;5058223;28;20218;-78
2020/12/01 08:43:37;;;;;;;33.17;20.92;;;3.80;99.90;;;;;;5059565;28;20602;-78
2020/12/01 08:46:17;;;;;;;31.48;20.15;;;3.90;99.90;;;;;;5057865;28;20197;-78
2020/12/01 08:48:50;;;;;;;31.98;21.00;;;3.80;99.90;;;;;;5055848;28;20223;-78
2020/12/01 08:51:24;;;;;;;33.63;22.10;;;3.90;99.90;;;;;;5055996;28;20318;-78
2020/12/01 08:53:59;;;;;;;35.35;19.95;;;3.80;99.90;;;;;;5055710;28;20201;-78
2020/12/01 08:56:39;;;;;;;33.97;21.58;;;4.00;99.90;;;;;;5055573;28;20186;-78
2020/12/01 08:59:10;;;;;;;33.60;21.80;;;4.00;99.90;;;;;;5055098;28;20274;-78
2020/12/01 09:01:42;;;;;;;35.40;20.38;;;3.90;99.90;;;;;;5055033;28;20227;-79
2020/12/01 09:04:24;;;;;;;32.60;21.65;;;4.00;99.90;;;;;;5055020;28;20282;-78
2020/12/01 09:06:52;;;;;;;37.78;22.50;;;3.90;99.90;;;;;;5054474;28;20187;-78
2020/12/01 09:09:23;;;;;;;36.78;21.33;;;3.90;99.90;;;;;;5054940;28;20187;-78
2020/12/01 09:12:07;;;;;;;30.17;20.80;;;4.00;99.90;;;;;;5054970;28;20230;-80
2020/12/01 09:14:49;;;;;;;32.33;21.73;;;4.00;99.90;;;;;;5055850;28;20705;-79
2020/12/01 09:17:24;;;;;;;29.95;20.02;;;4.00;99.90;;;;;;5054913;28;20197;-79
2020/12/01 09:20:10;;;;;;;28.75;19.60;;;4.00;99.90;;;;;;5055102;28;20326;-79
2020/12/01 09:22:37;;;;;;;29.95;19.23;;;4.10;99.90;;;;;;5054447;28;20232;-79
2020/12/01 09:25:12;;;;;;;34.22;21.00;;;4.10;99.90;;;;;;5054440;28;20230;-79
2020/12/01 09:27:40;;;;;;;35.60;21.55;;;4.10;99.90;;;;;;5055298;28;20187;-79
2020/12/01 09:30:16;;;;;;;31.58;21.05;;;4.00;99.90;;;;;;5054776;28;20662;-78
2020/12/01 09:32:43;;;;;;;35.90;20.15;;;4.20;99.90;;;;;;5053490;28;20609;-78
2020/12/01 09:35:10;;;;;;;31.95;20.35;;;4.30;99.90;;;;;;5054329;28;20219;-78
2020/12/01 09:37:36;;;;;;;37.92;20.27;;;4.40;99.90;;;;;;5053932;28;20583;-78
2020/12/01 09:40:04;;;;;;;30.80;19.98;;;4.50;99.90;;;;;;5053665;28;20289;-79
2020/12/01 09:42:32;;;;;;;31.17;21.67;;;4.40;99.90;;;;;;5053774;28;20309;-79
2020/12/01 09:45:08;;;;;;;28.85;20.90;;;4.40;99.90;;;;;;5054415;28;20245;-79
2020/12/01 09:47:41;;;;;;;31.27;19.83;;;4.40;99.90;;;;;;5054748;28;20183;-79
2020/12/01 09:50:13;;;;;;;30.50;20.70;;;4.40;99.90;;;;;;5054335;28;20282;-78
2020/12/01 09:52:54;;;;;;;30.52;19.65;;;4.40;99.90;;;;;;5054568;28;20313;-78
2020/12/01 09:55:35;;;;;;;33.45;20.20;;;4.50;99.90;;;;;;5055241;28;20191;-79
2020/12/01 09:58:09;;;;;;;28.88;19.98;;;4.50;99.90;;;;;;5054129;28;20674;-78
2020/12/01 10:00:56;;;;;;;28.83;19.52;;;4.50;99.90;;;;;;5053751;28;20183;-78
2020/12/01 10:08:51;;;;;;;31.00;20.05;;;4.60;99.90;;;;;;5031285;28;20289;-79
2020/12/01 10:14:37;;;;;;;30.17;20.50;;;4.80;99.90;;;;;;5013406;28;20657;-79
2020/12/01 10:17:39;;;;;;;32.83;19.60;;;4.80;99.90;;;;;;5051461;28;20210;-79
2020/12/01 10:36:57;;;;;;;28.85;19.65;;;4.80;99.90;;;;;;5015698;28;20211;-79
2020/12/01 10:39:25;;;;;;;28.70;20.35;;;4.80;99.90;;;;;;5019676;28;20227;-78
2020/12/01 10:44:55;;;;;;;31.83;21.40;;;4.80;99.90;;;;;;3296479;26;20295;-79
2020/12/01 10:47:33;;;;;;;35.42;23.45;;;4.70;99.90;;;;;;5021328;28;20196;-79
2020/12/01 10:50:00;;;;;;;35.78;22.90;;;4.70;99.90;;;;;;5022549;28;20194;-79
2020/12/01 10:52:35;;;;;;;27.90;20.77;;;4.70;99.90;;;;;;5022102;28;20270;-79
2020/12/01 10:55:03;;;;;;;32.97;21.38;;;4.70;99.90;;;;;;5043611;22;20294;-80
2020/12/01 10:57:29;;;;;;;28.95;20.85;;;4.70;99.90;;;;;;5020311;28;20276;-78
2020/12/01 10:59:56;;;;;;;25.73;20.25;;;4.90;99.90;;;;;;5018374;28;20213;-79
2020/12/01 11:02:22;;;;;;;30.88;19.08;;;4.80;99.90;;;;;;5017803;28;20693;-81
2020/12/01 11:04:49;;;;;;;28.38;20.42;;;4.80;99.90;;;;;;5018519;28;20199;-81
2020/12/01 11:07:15;;;;;;;27.00;20.10;;;4.90;99.90;;;;;;5018434;28;20211;-81
2020/12/01 11:09:41;;;;;;;39.03;22.15;;;4.90;99.90;;;;;;5018287;28;20209;-81
2020/12/01 11:12:08;;;;;;;38.08;27.80;;;4.80;99.90;;;;;;5019172;28;20707;-79
2020/12/01 11:14:35;;;;;;;33.03;22.10;;;4.90;99.90;;;;;;5022162;28;20208;-80
2020/12/01 11:17:01;;;;;;;32.17;21.15;;;4.90;99.90;;;;;;5021850;28;20231;-80
2020/12/01 11:19:27;;;;;;;30.75;22.17;;;5.00;99.90;;;;;;5021162;28;20668;-80
2020/12/01 11:21:54;;;;;;;30.35;20.15;;;5.00;99.90;;;;;;5020866;28;20214;-79
2020/12/01 11:24:20;;;;;;;31.90;22.40;;;5.10;99.90;;;;;;5021255;28;20195;-80
2020/12/01 11:26:46;;;;;;;33.97;23.30;;;5.10;99.90;;;;;;5023836;28;20228;-81
2020/12/01 11:29:14;;;;;;;39.13;25.42;;;4.90;99.90;;;;;;5020797;28;20299;-80
2020/12/01 11:31:43;;;;;;;47.45;31.13;;;4.90;99.90;;;;;;5034444;28;20224;-79
2020/12/01 11:34:12;;;;;;;31.20;22.02;;;4.90;99.90;;;;;;5035884;28;20260;-78
2020/12/01 11:36:39;;;;;;;33.85;22.80;;;4.90;99.90;;;;;;5035427;28;20221;-79
2020/12/01 11:39:08;;;;;;;29.73;19.15;;;5.00;99.90;;;;;;5029858;28;20295;-79
2020/12/01 11:41:35;;;;;;;27.98;19.35;;;5.00;99.90;;;;;;5023527;28;20661;-78
2020/12/01 11:44:01;;;;;;;27.65;19.35;;;5.00;99.90;;;;;;5022348;28;20207;-79
2020/12/01 11:46:28;;;;;;;26.02;17.85;;;5.10;99.90;;;;;;5022522;28;20224;-80
2020/12/01 11:48:55;;;;;;;28.27;19.83;;;5.30;99.90;;;;;;5020865;28;20240;-80
2020/12/01 11:51:21;;;;;;;28.33;20.90;;;5.50;99.90;;;;;;5020863;28;20232;-79
2020/12/01 11:53:47;;;;;;;28.20;20.13;;;5.50;99.90;;;;;;5021627;28;20208;-81
2020/12/01 11:56:14;;;;;;;28.33;20.52;;;5.50;99.90;;;;;;5021290;28;20238;-79
2020/12/01 11:58:40;;;;;;;28.88;19.73;;;5.50;99.90;;;;;;5028732;28;20227;-78
2020/12/01 12:01:07;;;;;;;28.30;19.42;;;5.60;99.90;;;;;;5035167;28;20294;-80
2020/12/01 12:03:34;;;;;;;27.15;19.55;;;5.60;99.90;;;;;;5037243;28;20203;-80
2020/12/01 12:06:00;;;;;;;28.33;18.88;;;5.50;99.90;;;;;;5032643;28;20327;-78
2020/12/01 12:08:27;;;;;;;28.67;20.15;;;5.30;99.90;;;;;;5036787;28;20248;-79
2020/12/01 12:10:53;;;;;;;32.30;20.35;;;5.30;99.90;;;;;;5035914;28;20253;-79
2020/12/01 12:13:19;;;;;;;25.02;19.20;;;5.30;99.90;;;;;;5034821;28;20215;-79
2020/12/01 12:15:46;;;;;;;29.05;20.42;;;5.40;99.90;;;;;;5032294;28;20303;-79
2020/12/01 12:18:12;;;;;;;30.83;22.90;;;5.20;99.90;;;;;;5036868;28;20207;-79
2020/12/01 12:20:39;;;;;;;34.42;21.98;;;5.20;99.90;;;;;;5035883;28;20269;-78
2020/12/01 12:23:05;;;;;;;32.13;22.88;;;4.90;99.90;;;;;;5036152;28;20235;-80
2020/12/01 12:25:32;;;;;;;32.58;21.13;;;4.80;99.90;;;;;;5036100;28;20307;-78
2020/12/01 12:27:58;;;;;;;32.50;23.15;;;4.90;99.90;;;;;;5036012;28;20219;-79
2020/12/01 12:30:24;;;;;;;35.13;21.88;;;4.80;99.90;;;;;;5036016;28;20199;-80
2020/12/01 12:32:51;;;;;;;40.58;23.35;;;4.80;99.90;;;;;;5028484;28;20297;-79
2020/12/01 12:35:17;;;;;;;28.48;21.77;;;4.90;99.90;;;;;;5025583;28;20220;-79
2020/12/01 12:37:44;;;;;;;38.58;24.83;;;5.00;99.90;;;;;;5022830;28;20199;-79
2020/12/01 12:40:11;;;;;;;31.60;20.10;;;5.00;99.90;;;;;;5022898;28;20280;-81
2020/12/01 12:42:37;;;;;;;32.47;22.48;;;5.00;99.90;;;;;;5024402;28;20201;-81
2020/12/01 12:45:04;;;;;;;42.17;23.67;;;5.10;99.90;;;;;;5022604;28;20224;-80
2020/12/01 12:47:31;;;;;;;34.20;23.33;;;5.00;99.90;;;;;;5023211;28;20652;-81
2020/12/01 12:49:57;;;;;;;32.67;23.13;;;4.90;99.90;;;;;;5022475;28;20205;-80
2020/12/01 12:52:23;;;;;;;30.25;21.40;;;4.90;99.90;;;;;;5020205;28;20228;-80
2020/12/01 12:54:50;;;;;;;31.88;22.48;;;5.00;99.90;;;;;;5020661;28;20681;-80
2020/12/01 12:57:17;;;;;;;28.27;20.25;;;5.10;99.90;;;;;;5021221;28;20200;-80
2020/12/01 12:59:43;;;;;;;28.05;18.98;;;4.90;99.90;;;;;;5021202;28;20198;-80
2020/12/01 13:02:10;;;;;;;34.17;24.30;;;4.90;99.90;;;;;;5020949;28;20205;-79
2020/12/01 13:04:36;;;;;;;30.60;21.42;;;4.90;99.90;;;;;;5021715;28;20228;-79
2020/12/01 13:07:02;;;;;;;30.27;20.55;;;4.90;99.90;;;;;;5024102;28;20224;-79
2020/12/01 13:09:29;;;;;;;31.10;20.80;;;4.90;99.90;;;;;;5030034;28;20192;-79
2020/12/01 13:11:56;;;;;;;37.15;21.42;;;4.90;99.90;;;;;;5031975;28;20264;-80
2020/12/01 13:14:24;;;;;;;30.40;21.90;;;4.90;99.90;;;;;;5033445;28;20240;-81
2020/12/01 13:16:51;;;;;;;33.42;20.30;;;4.80;99.90;;;;;;5033019;28;20232;-80
2020/12/01 13:19:18;;;;;;;27.67;20.60;;;4.80;99.90;;;;;;5034550;28;20228;-78
2020/12/01 13:21:44;;;;;;;27.45;19.45;;;4.80;99.90;;;;;;5034576;28;20214;-80